Time;durP1;ratioP1;P1;durP2;ratioP2;P2;SDS_P1;SDS_P2;PMS_P1;PMS_P2;Temp;Humidity;BMP_temperature;BMP_pressure;BME280_temperature;BME280_humidity;BME280_pressure;Samples;Min_cycle;Max_cycle;Signal;HPM_P1;HPM_P2
2023/09/29 00:00:51;;;;;;;;;;;;;;;22.63;nan;101798.56;4979138;28;19933;-88
2023/09/29 00:03:17;;;;;;;;;;;;;;;22.63;nan;101795.03;4979504;28;19933;-88
2023/09/29 00:05:45;;;;;;;;;;;;;;;22.66;nan;101797.16;4978323;28;19918;-87
2023/09/29 00:08:16;;;;;;;;;;;;;;;22.68;nan;101800.38;4979432;28;19918;-87
2023/09/29 00:10:42;;;;;;;;;;;;;;;22.70;nan;101800.88;4980828;28;19926;-88
2023/09/29 00:13:07;;;;;;;;;;;;;;;22.70;nan;101803.63;4981187;28;19925;-88
2023/09/29 00:15:33;;;;;;;;;;;;;;;22.67;nan;101804.22;4979745;28;19921;-88
2023/09/29 00:17:59;;;;;;;;;;;;;;;22.65;nan;101806.47;4985230;28;19999;-88
2023/09/29 00:20:25;;;;;;;;;;;;;;;22.64;nan;101799.38;4984346;28;19922;-88
2023/09/29 00:22:52;;;;;;;;;;;;;;;22.59;nan;101801.06;4982741;28;19936;-88
2023/09/29 00:25:17;;;;;;;;;;;;;;;22.55;nan;101800.06;4978445;28;19921;-88
2023/09/29 00:27:42;;;;;;;;;;;;;;;22.49;nan;101798.56;4976738;28;19932;-88
2023/09/29 00:30:09;;;;;;;;;;;;;;;22.45;nan;101786.63;4981108;28;19949;-87
2023/09/29 00:32:35;;;;;;;;;;;;;;;22.41;nan;101791.06;4979610;28;19936;-88
2023/09/29 00:35:00;;;;;;;;;;;;;;;22.37;nan;101783.78;4981077;28;19922;-89
2023/09/29 00:37:26;;;;;;;;;;;;;;;22.33;nan;101780.84;4981130;28;20484;-88
2023/09/29 00:39:52;;;;;;;;;;;;;;;22.33;nan;101782.78;4982262;28;19925;-88
2023/09/29 00:42:18;;;;;;;;;;;;;;;22.30;nan;101776.00;4975183;28;20431;-86
2023/09/29 00:44:43;;;;;;;;;;;;;;;22.29;nan;101774.38;4981656;28;19918;-88
2023/09/29 00:47:09;;;;;;;;;;;;;;;22.23;nan;101776.38;4979911;28;20356;-88
2023/09/29 00:49:35;;;;;;;;;;;;;;;22.17;nan;101784.97;4980806;28;20422;-88
2023/09/29 00:52:01;;;;;;;;;;;;;;;22.16;nan;101786.09;4978845;28;19961;-88
2023/09/29 00:54:30;;;;;;;;;;;;;;;22.15;nan;101776.28;4980212;28;19969;-88
2023/09/29 00:56:58;;;;;;;;;;;;;;;22.15;nan;101771.63;4979659;28;19932;-87
2023/09/29 00:59:24;;;;;;;;;;;;;;;22.16;nan;101765.06;4978965;28;19924;-88
2023/09/29 01:01:50;;;;;;;;;;;;;;;22.16;nan;101764.25;4977887;28;19929;-88
2023/09/29 01:04:15;;;;;;;;;;;;;;;22.16;nan;101761.53;4981256;28;19925;-88
2023/09/29 01:06:41;;;;;;;;;;;;;;;22.15;nan;101763.44;4982130;28;19957;-88
2023/09/29 01:09:07;;;;;;;;;;;;;;;22.13;nan;101759.41;4982007;28;19922;-87
2023/09/29 01:11:44;;;;;;;;;;;;;;;22.10;nan;101755.34;4979453;28;20062;-87
2023/09/29 01:14:13;;;;;;;;;;;;;;;22.07;nan;101766.03;4980826;28;20008;-86
2023/09/29 01:16:39;;;;;;;;;;;;;;;22.05;nan;101757.34;4982073;28;19922;-88
2023/09/29 01:19:11;;;;;;;;;;;;;;;22.03;nan;101758.44;4980988;28;19917;-88
2023/09/29 01:21:37;;;;;;;;;;;;;;;22.01;nan;101757.13;4982951;28;19926;-88
2023/09/29 01:24:02;;;;;;;;;;;;;;;22.00;nan;101753.56;4982971;28;19917;-87
2023/09/29 01:26:27;;;;;;;;;;;;;;;21.99;nan;101760.16;4983057;28;19917;-88
2023/09/29 01:28:52;;;;;;;;;;;;;;;21.96;nan;101760.75;4979126;28;19921;-88
2023/09/29 01:31:18;;;;;;;;;;;;;;;21.90;nan;101761.97;4979540;28;20035;-87
2023/09/29 01:33:44;;;;;;;;;;;;;;;21.88;nan;101758.69;4979552;28;20069;-87
2023/09/29 01:36:10;;;;;;;;;;;;;;;21.87;nan;101753.53;4982332;28;20403;-88
2023/09/29 01:38:35;;;;;;;;;;;;;;;21.83;nan;101758.78;4997127;28;20341;-88
2023/09/29 01:41:01;;;;;;;;;;;;;;;21.81;nan;101758.28;4994320;28;19972;-88
2023/09/29 01:43:26;;;;;;;;;;;;;;;21.78;nan;101758.06;4978809;28;19961;-87
2023/09/29 01:45:51;;;;;;;;;;;;;;;21.74;nan;101757.88;4993730;28;19927;-87
2023/09/29 01:48:16;;;;;;;;;;;;;;;21.73;nan;101758.16;4980820;28;20301;-87
2023/09/29 01:50:42;;;;;;;;;;;;;;;21.68;nan;101751.66;4980534;28;19921;-88
2023/09/29 01:53:07;;;;;;;;;;;;;;;21.64;nan;101753.38;4980060;28;20063;-88
2023/09/29 01:55:33;;;;;;;;;;;;;;;21.62;nan;101749.34;4980914;28;20019;-88
2023/09/29 01:57:58;;;;;;;;;;;;;;;21.61;nan;101753.16;4981000;28;19941;-87
2023/09/29 02:00:24;;;;;;;;;;;;;;;21.60;nan;101752.38;4975600;28;20048;-88
2023/09/29 02:02:50;;;;;;;;;;;;;;;21.59;nan;101756.19;4979495;28;20515;-88
2023/09/29 02:05:18;;;;;;;;;;;;;;;21.58;nan;101746.41;4979372;28;19925;-88
2023/09/29 02:07:44;;;;;;;;;;;;;;;21.58;nan;101740.94;4979949;28;19956;-87
2023/09/29 02:10:09;;;;;;;;;;;;;;;21.59;nan;101745.28;4979348;28;19969;-88
2023/09/29 02:12:38;;;;;;;;;;;;;;;21.56;nan;101737.72;4974149;28;20084;-88
2023/09/29 02:15:06;;;;;;;;;;;;;;;21.54;nan;101737.19;4979504;28;20005;-87
2023/09/29 02:17:35;;;;;;;;;;;;;;;21.53;nan;101740.19;4981898;28;20294;-87
2023/09/29 02:20:03;;;;;;;;;;;;;;;21.51;nan;101743.22;4984568;28;19922;-87
2023/09/29 02:22:30;;;;;;;;;;;;;;;21.47;nan;101741.41;4983905;28;19922;-88
2023/09/29 02:24:55;;;;;;;;;;;;;;;21.41;nan;101737.94;4984709;28;19965;-87
2023/09/29 02:27:22;;;;;;;;;;;;;;;21.38;nan;101738.56;4974174;28;19929;-87
2023/09/29 02:29:47;;;;;;;;;;;;;;;21.37;nan;101735.03;4983428;28;19973;-87
2023/09/29 02:32:12;;;;;;;;;;;;;;;21.38;nan;101733.91;4979479;28;19961;-87
2023/09/29 02:34:37;;;;;;;;;;;;;;;21.38;nan;101738.56;4984643;28;19949;-87
2023/09/29 02:37:03;;;;;;;;;;;;;;;21.35;nan;101734.47;4979109;28;19945;-87
2023/09/29 02:39:29;;;;;;;;;;;;;;;21.39;nan;101740.97;4983933;28;19921;-87
2023/09/29 02:41:54;;;;;;;;;;;;;;;21.44;nan;101747.44;4981240;28;19933;-87
2023/09/29 02:44:20;;;;;;;;;;;;;;;21.48;nan;101743.00;4983405;28;19925;-88
2023/09/29 02:46:45;;;;;;;;;;;;;;;21.52;nan;101735.84;4985252;28;20449;-88
2023/09/29 02:49:10;;;;;;;;;;;;;;;21.56;nan;101742.34;4982848;28;19925;-88
2023/09/29 02:51:36;;;;;;;;;;;;;;;21.59;nan;101733.56;4983349;28;19934;-88
2023/09/29 02:54:04;;;;;;;;;;;;;;;21.58;nan;101743.69;4978186;28;19960;-88
2023/09/29 02:56:30;;;;;;;;;;;;;;;21.55;nan;101746.19;4984197;28;19925;-86
2023/09/29 02:58:55;;;;;;;;;;;;;;;21.51;nan;101748.69;4979458;28;19953;-88
2023/09/29 03:01:22;;;;;;;;;;;;;;;21.49;nan;101737.25;4998061;28;19926;-88
2023/09/29 03:03:47;;;;;;;;;;;;;;;21.45;nan;101735.44;4983159;28;19922;-88
2023/09/29 03:06:20;;;;;;;;;;;;;;;21.39;nan;101742.91;4981794;28;20349;-87
2023/09/29 03:08:46;;;;;;;;;;;;;;;21.35;nan;101739.13;4984898;28;20079;-88
2023/09/29 03:11:12;;;;;;;;;;;;;;;21.32;nan;101734.25;4983122;28;19921;-86
2023/09/29 03:13:37;;;;;;;;;;;;;;;21.27;nan;101739.81;4983122;28;19921;-88
2023/09/29 03:16:04;;;;;;;;;;;;;;;21.23;nan;101728.66;4982458;28;19940;-88
2023/09/29 03:18:30;;;;;;;;;;;;;;;21.22;nan;101732.50;4985446;28;19922;-88
2023/09/29 03:20:56;;;;;;;;;;;;;;;21.20;nan;101723.81;4982722;28;19921;-87
2023/09/29 03:23:21;;;;;;;;;;;;;;;21.19;nan;101730.38;4982657;28;19933;-87
2023/09/29 03:25:46;;;;;;;;;;;;;;;21.20;nan;101726.53;4982151;28;19926;-86
2023/09/29 03:28:12;;;;;;;;;;;;;;;21.17;nan;101721.66;4979878;28;19922;-87
2023/09/29 03:30:37;;;;;;;;;;;;;;;21.13;nan;101721.44;4982257;28;19922;-88
2023/09/29 03:33:03;;;;;;;;;;;;;;;21.13;nan;101720.63;4982389;28;19929;-88
2023/09/29 03:35:29;;;;;;;;;;;;;;;21.10;nan;101721.22;4996986;28;19947;-88
2023/09/29 03:37:55;;;;;;;;;;;;;;;21.08;nan;101707.09;4981755;28;20135;-88
2023/09/29 03:40:20;;;;;;;;;;;;;;;21.06;nan;101710.09;4981761;28;19918;-88
2023/09/29 03:42:46;;;;;;;;;;;;;;;21.04;nan;101708.78;4983799;28;19929;-87
2023/09/29 03:45:11;;;;;;;;;;;;;;;21.04;nan;101706.06;4983213;28;19922;-87
2023/09/29 03:47:37;;;;;;;;;;;;;;;21.05;nan;101707.69;4982410;28;19930;-87
2023/09/29 03:50:06;;;;;;;;;;;;;;;21.03;nan;101693.53;4983333;28;20584;-88
2023/09/29 03:52:32;;;;;;;;;;;;;;;21.01;nan;101696.56;4982636;28;20002;-88
2023/09/29 03:54:57;;;;;;;;;;;;;;;21.01;nan;101687.59;4979445;28;20064;-88
2023/09/29 03:57:22;;;;;;;;;;;;;;;21.00;nan;101696.84;4985264;28;19948;-88
2023/09/29 03:59:48;;;;;;;;;;;;;;;20.98;nan;101693.59;4980979;28;19925;-87
2023/09/29 04:02:13;;;;;;;;;;;;;;;21.00;nan;101700.38;4978397;28;19929;-87
2023/09/29 04:04:39;;;;;;;;;;;;;;;20.99;nan;101697.94;4979547;28;19928;-87
2023/09/29 04:07:04;;;;;;;;;;;;;;;21.00;nan;101696.84;4982598;28;19953;-88
2023/09/29 04:09:30;;;;;;;;;;;;;;;21.05;nan;101688.59;4981756;28;20008;-87
2023/09/29 04:11:55;;;;;;;;;;;;;;;21.09;nan;101695.06;4980402;28;20310;-88
2023/09/29 04:14:21;;;;;;;;;;;;;;;21.10;nan;101689.31;4980063;28;20020;-88
2023/09/29 04:16:46;;;;;;;;;;;;;;;21.13;nan;101686.00;4999090;28;21625;-86
2023/09/29 04:19:12;;;;;;;;;;;;;;;21.15;nan;101688.44;4980494;28;19932;-87
2023/09/29 04:21:38;;;;;;;;;;;;;;;21.18;nan;101682.38;4979073;28;19929;-87
2023/09/29 04:24:03;;;;;;;;;;;;;;;21.21;nan;101686.47;4981333;28;20004;-87
2023/09/29 04:26:28;;;;;;;;;;;;;;;21.23;nan;101690.50;4981036;28;20336;-87
2023/09/29 04:28:54;;;;;;;;;;;;;;;21.25;nan;101693.78;4977070;28;19926;-87
2023/09/29 04:31:20;;;;;;;;;;;;;;;21.30;nan;101681.97;4979733;28;20506;-87
2023/09/29 04:33:45;;;;;;;;;;;;;;;21.33;nan;101686.81;4985737;28;19933;-87
2023/09/29 04:36:11;;;;;;;;;;;;;;;21.34;nan;101683.78;4986848;28;19925;-87
2023/09/29 04:38:36;;;;;;;;;;;;;;;21.40;nan;101690.00;4981263;28;19925;-87
2023/09/29 04:41:02;;;;;;;;;;;;;;;21.40;nan;101690.81;4978231;28;19918;-87
2023/09/29 04:43:28;;;;;;;;;;;;;;;21.41;nan;101686.97;4975017;28;20021;-88
2023/09/29 04:45:54;;;;;;;;;;;;;;;21.41;nan;101688.88;4979478;28;19950;-87
2023/09/29 04:48:19;;;;;;;;;;;;;;;21.38;nan;101687.56;4978502;28;20417;-88
2023/09/29 04:50:44;;;;;;;;;;;;;;;21.39;nan;101694.63;4978885;28;19925;-88
2023/09/29 04:53:10;;;;;;;;;;;;;;;21.40;nan;101696.25;4976925;28;20236;-87
2023/09/29 04:55:35;;;;;;;;;;;;;;;21.41;nan;101692.41;4980985;28;19933;-87
2023/09/29 04:58:01;;;;;;;;;;;;;;;21.44;nan;101687.47;4979241;28;19980;-87
2023/09/29 05:00:26;;;;;;;;;;;;;;;21.45;nan;101694.53;4975167;28;20328;-88
2023/09/29 05:02:51;;;;;;;;;;;;;;;21.45;nan;101691.81;4979366;28;19922;-87
2023/09/29 05:05:17;;;;;;;;;;;;;;;21.44;nan;101687.47;4980598;28;19922;-88
2023/09/29 05:07:43;;;;;;;;;;;;;;;21.44;nan;101687.47;4977791;28;20419;-87
2023/09/29 05:10:10;;;;;;;;;;;;;;;21.44;nan;101688.28;4983271;28;20561;-87
2023/09/29 05:12:36;;;;;;;;;;;;;;;21.45;nan;101694.53;4980522;28;20149;-88
2023/09/29 05:15:02;;;;;;;;;;;;;;;21.47;nan;101690.41;4979697;28;19929;-88
2023/09/29 05:17:27;;;;;;;;;;;;;;;21.46;nan;101688.78;4975809;28;19961;-88
2023/09/29 05:19:52;;;;;;;;;;;;;;;21.48;nan;101691.22;4979635;28;19961;-88
2023/09/29 05:22:20;;;;;;;;;;;;;;;21.48;nan;101693.94;4996536;28;20419;-88
2023/09/29 05:24:45;;;;;;;;;;;;;;;21.48;nan;101699.41;4975277;28;19944;-88
2023/09/29 05:27:11;;;;;;;;;;;;;;;21.49;nan;101699.09;4995480;28;19925;-87
2023/09/29 05:29:37;;;;;;;;;;;;;;;21.51;nan;101693.34;4974950;28;19922;-87
2023/09/29 05:32:02;;;;;;;;;;;;;;;21.53;nan;101691.13;4977010;28;19992;-87
2023/09/29 05:34:28;;;;;;;;;;;;;;;21.54;nan;101688.09;4982365;28;19918;-86
2023/09/29 05:36:53;;;;;;;;;;;;;;;21.57;nan;101698.44;4979637;28;20065;-87
2023/09/29 05:39:19;;;;;;;;;;;;;;;21.59;nan;101695.41;4983476;28;19917;-88
2023/09/29 05:41:44;;;;;;;;;;;;;;;21.63;nan;101696.41;4979300;28;19922;-88
2023/09/29 05:44:09;;;;;;;;;;;;;;;21.67;nan;101705.59;4978824;28;20465;-88
2023/09/29 05:46:35;;;;;;;;;;;;;;;21.70;nan;101707.72;4977668;28;19925;-87
2023/09/29 05:49:00;;;;;;;;;;;;;;;21.73;nan;101695.44;4979020;28;19928;-88
2023/09/29 05:51:25;;;;;;;;;;;;;;;21.78;nan;101696.16;4982075;28;19917;-87
2023/09/29 05:53:51;;;;;;;;;;;;;;;21.84;nan;101696.84;4983213;28;19921;-87
2023/09/29 05:56:16;;;;;;;;;;;;;;;21.89;nan;101702.22;4985004;28;20365;-87
2023/09/29 05:58:41;;;;;;;;;;;;;;;21.93;nan;101701.31;4976067;28;20217;-87
2023/09/29 06:01:13;;;;;;;;;;;;;;;21.99;nan;101708.28;4978830;28;19933;-87
2023/09/29 06:03:40;;;;;;;;;;;;;;;22.06;nan;101705.19;4980793;28;19921;-87
2023/09/29 06:06:07;;;;;;;;;;;;;;;22.13;nan;101702.09;4981717;28;20048;-84
2023/09/29 06:08:32;;;;;;;;;;;;;;;22.20;nan;101699.75;4983884;28;20397;-86
2023/09/29 06:10:58;;;;;;;;;;;;;;;22.29;nan;101696.03;4983258;28;19988;-85
2023/09/29 06:13:23;;;;;;;;;;;;;;;22.42;nan;101697.09;4987275;28;20014;-86
2023/09/29 06:15:48;;;;;;;;;;;;;;;22.51;nan;101692.56;4983399;28;19918;-86
2023/09/29 06:18:15;;;;;;;;;;;;;;;22.59;nan;101704.66;4982645;28;20485;-86
2023/09/29 06:20:40;;;;;;;;;;;;;;;22.66;nan;101698.81;4979008;28;20173;-86
2023/09/29 06:23:06;;;;;;;;;;;;;;;22.73;nan;101697.28;4977577;28;20546;-86
2023/09/29 06:25:31;;;;;;;;;;;;;;;22.82;nan;101705.59;4980427;28;20349;-86
2023/09/29 06:27:57;;;;;;;;;;;;;;;22.88;nan;101707.09;4985648;28;19928;-87
2023/09/29 06:30:22;;;;;;;;;;;;;;;22.91;nan;101706.47;4982836;28;19933;-87
2023/09/29 06:32:47;;;;;;;;;;;;;;;22.95;nan;101703.91;4985330;28;19928;-87
2023/09/29 06:35:14;;;;;;;;;;;;;;;23.00;nan;101710.09;4980686;28;19957;-86
2023/09/29 06:37:40;;;;;;;;;;;;;;;23.05;nan;101700.97;4982670;28;19928;-86
2023/09/29 06:40:05;;;;;;;;;;;;;;;23.10;nan;101698.91;4979741;28;20233;-86
2023/09/29 06:42:31;;;;;;;;;;;;;;;23.19;nan;101704.47;4984352;28;19937;-86
2023/09/29 06:44:56;;;;;;;;;;;;;;;23.30;nan;101696.81;4981236;28;20349;-86
2023/09/29 06:47:21;;;;;;;;;;;;;;;23.40;nan;101711.03;4982455;28;19917;-86
2023/09/29 06:49:47;;;;;;;;;;;;;;;23.49;nan;101703.69;4983667;28;20390;-86
2023/09/29 06:52:12;;;;;;;;;;;;;;;23.52;nan;101703.09;4980636;28;19932;-85
2023/09/29 06:54:37;;;;;;;;;;;;;;;23.58;nan;101694.78;4983340;28;19933;-86
2023/09/29 06:57:03;;;;;;;;;;;;;;;23.65;nan;101690.47;4997444;28;19922;-86
2023/09/29 06:59:28;;;;;;;;;;;;;;;23.75;nan;101695.69;4980838;28;19954;-86
2023/09/29 07:01:55;;;;;;;;;;;;;;;23.90;nan;101686.25;4979989;28;19940;-86
2023/09/29 07:04:20;;;;;;;;;;;;;;;24.03;nan;101692.75;4982227;28;19922;-86
2023/09/29 07:06:45;;;;;;;;;;;;;;;24.16;nan;101689.09;4981344;28;19925;-86
2023/09/29 07:09:12;;;;;;;;;;;;;;;24.33;nan;101691.13;4980290;28;20025;-86
2023/09/29 07:11:40;;;;;;;;;;;;;;;24.47;nan;101689.06;4982859;28;19944;-86
2023/09/29 07:14:06;;;;;;;;;;;;;;;24.59;nan;101691.16;4979145;28;19922;-86
2023/09/29 07:16:32;;;;;;;;;;;;;;;24.66;nan;101695.06;4981658;28;20012;-86
2023/09/29 07:18:57;;;;;;;;;;;;;;;24.71;nan;101702.31;4977377;28;20020;-85
2023/09/29 07:21:23;;;;;;;;;;;;;;;24.75;nan;101703.28;4978430;28;19981;-86
2023/09/29 07:23:48;;;;;;;;;;;;;;;24.78;nan;101699.91;4981407;28;20466;-87
2023/09/29 07:26:13;;;;;;;;;;;;;;;24.87;nan;101697.16;4977852;28;19922;-85
2023/09/29 07:28:40;;;;;;;;;;;;;;;24.99;nan;101703.66;4995427;28;19922;-85
2023/09/29 07:31:05;;;;;;;;;;;;;;;25.06;nan;101699.63;4978454;28;19926;-86
2023/09/29 07:33:30;;;;;;;;;;;;;;;25.11;nan;101700.25;4996263;28;19932;-86
2023/09/29 07:35:56;;;;;;;;;;;;;;;25.18;nan;101692.38;4976223;28;19959;-85
2023/09/29 07:38:21;;;;;;;;;;;;;;;25.29;nan;101696.38;4978604;28;19921;-85
2023/09/29 07:40:47;;;;;;;;;;;;;;;25.42;nan;101691.84;4979744;28;20381;-86
2023/09/29 07:43:13;;;;;;;;;;;;;;;25.51;nan;101692.66;4977959;28;21267;-86
2023/09/29 07:45:39;;;;;;;;;;;;;;;25.55;nan;101690.84;4979048;28;20408;-85
2023/09/29 07:48:05;;;;;;;;;;;;;;;25.56;nan;101691.66;4976018;28;19918;-85
2023/09/29 07:50:30;;;;;;;;;;;;;;;25.59;nan;101691.81;4980714;28;21312;-85
2023/09/29 07:52:55;;;;;;;;;;;;;;;25.66;nan;101702.28;4976935;28;20436;-85
2023/09/29 07:55:21;;;;;;;;;;;;;;;25.71;nan;101701.34;4979247;28;19922;-85
2023/09/29 07:57:46;;;;;;;;;;;;;;;25.77;nan;101700.81;4984744;28;19918;-85
2023/09/29 08:00:12;;;;;;;;;;;;;;;25.82;nan;101708.88;4978889;28;19922;-85
2023/09/29 08:02:38;;;;;;;;;;;;;;;25.87;nan;101708.72;4980872;28;19980;-85
2023/09/29 08:05:03;;;;;;;;;;;;;;;25.97;nan;101706.72;4979721;28;19917;-85
2023/09/29 08:07:29;;;;;;;;;;;;;;;26.02;nan;101698.31;4980387;28;20024;-85
2023/09/29 08:09:54;;;;;;;;;;;;;;;26.08;nan;101703.31;4977755;28;20286;-85
2023/09/29 08:12:19;;;;;;;;;;;;;;;26.18;nan;101697.41;4980256;28;20309;-85
2023/09/29 08:14:45;;;;;;;;;;;;;;;26.29;nan;101700.59;4975327;28;19926;-85
2023/09/29 08:17:10;;;;;;;;;;;;;;;26.36;nan;101702.84;4976950;28;19928;-86
2023/09/29 08:19:36;;;;;;;;;;;;;;;26.42;nan;101707.84;4979418;28;20408;-85
2023/09/29 08:22:01;;;;;;;;;;;;;;;26.49;nan;101707.31;4975470;28;19925;-85
2023/09/29 08:24:26;;;;;;;;;;;;;;;26.59;nan;101704.19;4976979;28;20341;-85
2023/09/29 08:26:52;;;;;;;;;;;;;;;26.65;nan;101702.03;4978390;28;19992;-86
2023/09/29 08:29:17;;;;;;;;;;;;;;;26.72;nan;101694.84;4977887;28;19945;-85
2023/09/29 08:31:43;;;;;;;;;;;;;;;26.79;nan;101694.34;4979418;28;19928;-85
2023/09/29 08:34:08;;;;;;;;;;;;;;;26.86;nan;101694.59;4992004;28;19925;-86
2023/09/29 08:36:33;;;;;;;;;;;;;;;26.92;nan;101689.69;4977858;28;19929;-85
2023/09/29 08:38:59;;;;;;;;;;;;;;;27.02;nan;101700.34;4976434;28;19922;-85
2023/09/29 08:41:29;;;;;;;;;;;;;;;27.12;nan;101699.13;4978873;28;19922;-85
2023/09/29 08:43:54;;;;;;;;;;;;;;;27.22;nan;101691.25;4979195;28;19937;-85
2023/09/29 08:46:20;;;;;;;;;;;;;;;27.31;nan;101689.22;4979592;28;19932;-85
2023/09/29 08:48:51;;;;;;;;;;;;;;;27.39;nan;101688.31;4976221;28;19932;-85
2023/09/29 08:51:17;;;;;;;;;;;;;;;27.51;nan;101687.56;4976317;28;20413;-86
2023/09/29 08:53:43;;;;;;;;;;;;;;;27.59;nan;101694.91;4975502;28;20160;-86
2023/09/29 08:56:14;;;;;;;;;;;;;;;27.66;nan;101692.47;4981644;28;19921;-85
2023/09/29 08:58:40;;;;;;;;;;;;;;;27.74;nan;101695.44;4996456;28;20171;-85
2023/09/29 09:01:05;;;;;;;;;;;;;;;27.77;nan;101694.75;4974856;28;19948;-85
2023/09/29 09:03:31;;;;;;;;;;;;;;;27.83;nan;101698.88;4976505;28;20431;-86
2023/09/29 09:05:56;;;;;;;;;;;;;;;27.90;nan;101697.19;4980919;28;19922;-86
2023/09/29 09:08:23;;;;;;;;;;;;;;;27.95;nan;101696.94;4982601;28;19932;-85
2023/09/29 09:10:49;;;;;;;;;;;;;;;27.99;nan;101703.38;4989022;28;19925;-85
2023/09/29 09:13:20;;;;;;;;;;;;;;;28.03;nan;101697.22;4977693;28;19981;-87
2023/09/29 09:15:54;;;;;;;;;;;;;;;28.06;nan;101704.78;4986874;28;19965;-86
2023/09/29 09:18:19;;;;;;;;;;;;;;;28.07;nan;101709.13;4980974;28;19922;-86
2023/09/29 09:20:45;;;;;;;;;;;;;;;28.10;nan;101714.75;4982076;28;19999;-88
2023/09/29 09:23:11;;;;;;;;;;;;;;;28.14;nan;101715.66;4980399;28;19925;-87
2023/09/29 09:25:38;;;;;;;;;;;;;;;28.18;nan;101718.53;4996994;28;19926;-87
2023/09/29 09:28:05;;;;;;;;;;;;;;;28.23;nan;101716.38;4983328;28;20392;-87
2023/09/29 09:30:36;;;;;;;;;;;;;;;28.35;nan;101717.53;4983283;28;20003;-87
2023/09/29 09:33:04;;;;;;;;;;;;;;;28.45;nan;101726.16;4977895;28;19925;-85
2023/09/29 09:35:30;;;;;;;;;;;;;;;28.51;nan;101713.72;4982669;28;20037;-86
2023/09/29 09:37:56;;;;;;;;;;;;;;;28.48;nan;101703.41;4985341;28;20008;-85
2023/09/29 09:40:24;;;;;;;;;;;;;;;28.51;nan;101708.22;4989923;28;19925;-86
2023/09/29 09:42:50;;;;;;;;;;;;;;;28.55;nan;101703.63;4990559;28;19922;-85
2023/09/29 09:45:15;;;;;;;;;;;;;;;28.58;nan;101713.97;4984388;28;20095;-85
2023/09/29 09:47:41;;;;;;;;;;;;;;;28.57;nan;101709.59;4982174;28;19918;-86
2023/09/29 09:50:09;;;;;;;;;;;;;;;28.54;nan;101709.47;4983061;28;19925;-91
2023/09/29 09:52:35;;;;;;;;;;;;;;;28.47;nan;101704.56;4981159;28;20746;-91
2023/09/29 09:55:09;;;;;;;;;;;;;;;28.47;nan;101704.56;4983456;28;20381;-88
2023/09/29 09:57:37;;;;;;;;;;;;;;;28.51;nan;101716.50;4983617;28;19922;-88
2023/09/29 10:00:07;;;;;;;;;;;;;;;28.50;nan;101712.13;4981404;28;20025;-87
2023/09/29 10:02:39;;;;;;;;;;;;;;;28.53;nan;101719.69;4978866;28;19926;-86
2023/09/29 10:05:10;;;;;;;;;;;;;;;28.56;nan;101704.44;4979575;28;19968;-89
2023/09/29 10:07:43;;;;;;;;;;;;;;;28.58;nan;101710.41;4986771;28;19933;-86
2023/09/29 10:10:09;;;;;;;;;;;;;;;28.58;nan;101708.47;4985461;28;20377;-84
2023/09/29 10:12:35;;;;;;;;;;;;;;;28.63;nan;101709.38;4982078;28;19960;-86
2023/09/29 10:15:03;;;;;;;;;;;;;;;28.64;nan;101713.72;4978187;28;20568;-84
2023/09/29 10:17:41;;;;;;;;;;;;;;;28.66;nan;101714.19;4976304;28;20012;-85
2023/09/29 10:20:19;;;;;;;;;;;;;;;28.73;nan;101715.22;4985122;28;20546;-84
2023/09/29 10:22:46;;;;;;;;;;;;;;;28.76;nan;101728.28;4998631;28;20374;-82
2023/09/29 10:25:19;;;;;;;;;;;;;;;28.78;nan;101727.94;4982385;28;19918;-84
2023/09/29 10:27:49;;;;;;;;;;;;;;;28.84;nan;101732.06;4982366;28;20041;-85
2023/09/29 10:30:18;;;;;;;;;;;;;;;28.89;nan;101735.41;4983160;28;20020;-87
2023/09/29 10:32:48;;;;;;;;;;;;;;;28.91;nan;101729.56;4983477;28;19922;-86
2023/09/29 10:35:18;;;;;;;;;;;;;;;28.93;nan;101729.22;4981013;28;19957;-86
2023/09/29 10:37:45;;;;;;;;;;;;;;;28.91;nan;101726.81;4986818;28;19926;-87
2023/09/29 10:40:20;;;;;;;;;;;;;;;28.89;nan;101735.41;4985809;28;20445;-85
2023/09/29 10:42:46;;;;;;;;;;;;;;;28.91;nan;101737.84;4981837;28;19980;-85
2023/09/29 10:45:24;;;;;;;;;;;;;;;28.92;nan;101739.44;4978071;28;22118;-86
2023/09/29 10:47:49;;;;;;;;;;;;;;;28.97;nan;101730.91;4979208;28;19991;-83
2023/09/29 10:50:15;;;;;;;;;;;;;;;29.00;nan;101735.72;4978046;28;20476;-86
2023/09/29 10:52:40;;;;;;;;;;;;;;;29.00;nan;101734.94;4983535;28;19928;-85
2023/09/29 10:55:06;;;;;;;;;;;;;;;29.02;nan;101733.41;4981474;28;19934;-86
2023/09/29 10:57:33;;;;;;;;;;;;;;;29.08;nan;101737.53;4982116;28;20852;-85
2023/09/29 10:59:59;;;;;;;;;;;;;;;29.11;nan;101741.56;4982983;28;19921;-86
2023/09/29 11:02:29;;;;;;;;;;;;;;;29.12;nan;101738.47;4979781;28;19933;-86
2023/09/29 11:04:55;;;;;;;;;;;;;;;29.14;nan;101736.16;4978016;28;20016;-86
2023/09/29 11:07:20;;;;;;;;;;;;;;;29.14;nan;101736.16;4976195;28;20671;-86
2023/09/29 11:09:45;;;;;;;;;;;;;;;29.19;nan;101732.31;4995841;28;20385;-86
2023/09/29 11:12:18;;;;;;;;;;;;;;;29.23;nan;101729.66;4981507;28;19945;-86
2023/09/29 11:14:43;;;;;;;;;;;;;;;29.25;nan;101725.41;4992637;28;19921;-86
2023/09/29 11:17:10;;;;;;;;;;;;;;;29.28;nan;101723.91;4982558;28;19922;-86
2023/09/29 11:19:36;;;;;;;;;;;;;;;29.30;nan;101727.13;4977529;28;19930;-86
2023/09/29 11:22:03;;;;;;;;;;;;;;;29.32;nan;101724.81;4997867;28;19932;-86
2023/09/29 11:24:38;;;;;;;;;;;;;;;29.33;nan;101732.75;4982332;28;19922;-86
2023/09/29 11:27:05;;;;;;;;;;;;;;;29.39;nan;101731.31;4975966;28;19929;-85
2023/09/29 11:29:31;;;;;;;;;;;;;;;29.44;nan;101736.59;4983919;28;19921;-85
2023/09/29 11:31:57;;;;;;;;;;;;;;;29.50;nan;101731.66;4993626;28;19932;-85
2023/09/29 11:34:23;;;;;;;;;;;;;;;29.53;nan;101722.66;4981563;28;19961;-85
2023/09/29 11:36:49;;;;;;;;;;;;;;;29.56;nan;101727.47;4982403;28;20016;-85
2023/09/29 11:39:18;;;;;;;;;;;;;;;29.58;nan;101722.38;4984696;28;19922;-86
2023/09/29 11:41:43;;;;;;;;;;;;;;;29.59;nan;101718.47;4981166;28;19921;-85
2023/09/29 11:44:08;;;;;;;;;;;;;;;29.62;nan;101726.03;4981872;28;19926;-86
2023/09/29 11:46:35;;;;;;;;;;;;;;;29.62;nan;101728.81;4979539;28;20509;-85
2023/09/29 11:49:01;;;;;;;;;;;;;;;29.61;nan;101723.63;4978683;28;19921;-84
2023/09/29 11:51:26;;;;;;;;;;;;;;;29.62;nan;101723.28;4978552;28;19928;-85
2023/09/29 11:53:51;;;;;;;;;;;;;;;29.61;nan;101724.44;4980421;28;19964;-85
2023/09/29 11:56:17;;;;;;;;;;;;;;;29.61;nan;101724.44;4983385;28;20567;-84
2023/09/29 11:58:42;;;;;;;;;;;;;;;29.59;nan;101724.00;4984922;28;19922;-86
2023/09/29 12:01:08;;;;;;;;;;;;;;;29.58;nan;101722.38;4982917;28;19980;-85
2023/09/29 12:03:34;;;;;;;;;;;;;;;29.58;nan;101721.59;4980125;28;19926;-85
2023/09/29 12:06:01;;;;;;;;;;;;;;;29.59;nan;101718.47;4978888;28;19928;-84
2023/09/29 12:08:27;;;;;;;;;;;;;;;29.61;nan;101716.16;4980104;28;19973;-85
2023/09/29 12:10:53;;;;;;;;;;;;;;;29.61;nan;101705.09;4983325;28;19925;-85
2023/09/29 12:13:18;;;;;;;;;;;;;;;29.63;nan;101696.50;4981970;28;19929;-85
2023/09/29 12:15:47;;;;;;;;;;;;;;;29.62;nan;101681.84;4979403;28;19929;-86
2023/09/29 12:18:12;;;;;;;;;;;;;;;29.61;nan;101688.53;4978377;28;19928;-85
2023/09/29 12:20:41;;;;;;;;;;;;;;;29.61;nan;101683.03;4978887;28;20301;-85
2023/09/29 12:23:08;;;;;;;;;;;;;;;29.59;nan;101685.34;4983237;28;19949;-85
2023/09/29 12:25:34;;;;;;;;;;;;;;;29.59;nan;101682.56;4978597;28;19926;-84
2023/09/29 12:28:00;;;;;;;;;;;;;;;29.58;nan;101686.50;4979774;28;20635;-85
2023/09/29 12:30:26;;;;;;;;;;;;;;;29.58;nan;101682.94;4982423;28;19932;-85
2023/09/29 12:32:51;;;;;;;;;;;;;;;29.57;nan;101678.56;4982781;28;19922;-85
2023/09/29 12:35:16;;;;;;;;;;;;;;;29.55;nan;101672.59;4980757;28;20000;-85
2023/09/29 12:37:42;;;;;;;;;;;;;;;29.55;nan;101673.41;4982327;28;20736;-85
2023/09/29 12:40:11;;;;;;;;;;;;;;;29.55;nan;101664.31;4979626;28;19926;-85
2023/09/29 12:42:38;;;;;;;;;;;;;;;29.54;nan;101666.28;4980026;28;19937;-84
2023/09/29 12:45:03;;;;;;;;;;;;;;;29.56;nan;101666.72;4983008;28;20456;-85
2023/09/29 12:47:28;;;;;;;;;;;;;;;29.56;nan;101663.16;4980385;28;19944;-85
2023/09/29 12:49:54;;;;;;;;;;;;;;;29.55;nan;101658.78;4977468;28;20940;-85
2023/09/29 12:52:19;;;;;;;;;;;;;;;29.53;nan;101661.91;4979808;28;19988;-85